Thedford, Canada
Current Conditions -  °F | °C
As of 8:00 PM on Friday 28 Nov 2014 (Local Time) from CYZR Reporting Station
Light Snow Light Snow  
Wind Chill: -10°   Ceiling: 2700
Heat Index: -4°   Visibility: 9mi
Dew Point: -6°   Wind: 12mph
Humidity: 86%   Direction: 170°S
Pressure: 30.15"   Gusts: NA
Location:  43.17°N, 81.85°W
Report Text: CYZR 290100Z AUTO 17010KT 9SM -SN BKN027 OVC085 M04/M06 A3015 RMK SLP219
Loading
Personal Weather Stations






























Interactive Weather Map New forecast layout! Learn more

10-Day Weather Forecast

Advertisements
Track Severe Weather on mobile